LIEALIEE

Guest
Details From LIEA - ALGHERO
To LIEE - Cagliari Elmas
Flight Number -
Tags generated
Created
Modified
Stats Distance 90 nm / 167 km
Max Altitude 1,600 ft / 488 m
Waypoints 3
Social Downloads 7
Likes 0
Share VATSIM

Download

Looking for another format? Having issues loading an existing format? Contact us
Advertisement - Login to hide

Notes

Basic altitude profile: - Ascent Rate: 2500ft/min - Ascent Speed: 250kts - Cruise Altitude: 35000ft - Cruise Speed: 420kts - Descent Rate: 1500ft/min - Descent Speed: 250kts Options: - Use NATs: yes - Use PACOTS: yes - Use low airways: yes - Use high airways: yes

Route

LIEA DECNB LIEE

ID Type Via Altitude Latitude Longitude Leg Dist Tot Dist Heading (true) Name
O LIEA APT - 0 ft / 0 m 40.63213˚ 8.29077˚ - 0 nm - ALGHERO
DECNB FIX - 1,600 ft / 488 m 39.36361˚ 8.97417˚ 82 nm 82 nm 157° / 158° -
O LIEE APT - 0 ft / 0 m 39.25147˚ 9.05429˚ 7 nm 90 nm 151° / 151° Cagliari Elmas

Altitude Profile

Advertisement - Login to hide

LIEA

Details ICAO LIEA (AHO)
Name ALGHERO
Region Italy
Timezone Europe/Rome (UTC+1.0)
Stats Elevation 87 ft / 27 m (AMSL)
Location 40.632132° 8.290774°
Runways 1
Magnetic Variation 2.193° E

METAR

LIEA 110150Z 19022KT 9999 SCT013 BKN035 16/13 Q1005

Decode

TAF

TAF LIEA 102300Z 1100/1124 22020G30KT 9999 SCT030 BECMG 1119/1121 20015KT

Decode

Departure Runways

ID Width Length Bearing (true) Bearing (mag) Surface Threshold Offset Overrun Length
02 148 ft / 45 m 9,854 ft / 3,004 m 24.51° 22.32° Asphalt 0 ft / 0 m 0 ft / 0 m
20 148 ft / 45 m 9,854 ft / 3,004 m 204.52° 202.33° Asphalt 0 ft / 0 m 0 ft / 0 m

LIEE

Details ICAO LIEE (CAG)
Name Cagliari Elmas
Region Italy
Timezone Europe/Rome (UTC+1.0)
Stats Elevation 13 ft / 4 m (AMSL)
Location 39.251475° 9.054291°
Runways 1
Magnetic Variation 2.297° E

METAR

LIEE 110150Z 17006KT 9999 FEW050 15/12 Q1009

Decode

TAF

TAF LIEE 102300Z 1100/1124 20012KT 9999 SCT030 BECMG 1116/1118 VRB05KT

Decode

Destination Runways

ID Width Length Bearing (true) Bearing (mag) Surface Threshold Offset Overrun Length
14 148 ft / 45 m 9,157 ft / 2,791 m 138.08° 135.78° Asphalt 0 ft / 0 m 187 ft / 57 m
32 148 ft / 45 m 9,157 ft / 2,791 m 318.09° 315.79° Asphalt 0 ft / 0 m 0 ft / 0 m

Approach Navaids

Runway Type Ident Frequency Range Bearing (true) Bearing (mag) Slope Elevation
32 Localiser IEL 109.50 MHz 18 nm / 33 km 318.12° 315.82° - 7 ft / 2 m (AMSL)
32 Glidescope IEL 109.50 MHz 10 nm / 19 km 318.08° 315.79° 3.00° 9 ft / 3 m (AMSL)
32 DME IEL 109.50 MHz 18 nm / 33 km - - - 26 ft / 8 m (AMSL)

Popular Alternatives